EDDEEDDN

Guest
Details From EDDE - Erfurt
To EDDN - Nurnberg
Flight Number -
Tags generated
Created
Modified
Stats Distance 89 nm / 165 km
Max Altitude 4,900 ft / 1,494 m
Waypoints 3
Social Downloads 1
Likes 0
Share VATSIM

Download

Looking for another format? Having issues loading an existing format? Contact us
Advertisement - Login to hide

Notes

Basic altitude profile: - Ascent Rate: 2500ft/min - Ascent Speed: 250kts - Cruise Altitude: 35000ft - Cruise Speed: 420kts - Descent Rate: 1500ft/min - Descent Speed: 250kts Options: - Use NATs: yes - Use PACOTS: yes - Use low airways: yes - Use high airways: yes

Route

EDDE BAMAS EDDN

ID Type Via Altitude Latitude Longitude Leg Dist Tot Dist Heading (true) Name
O EDDE APT - 0 ft / 0 m 50.97981˚ 10.95810˚ - 0 nm - Erfurt
BAMAS FIX - 4,900 ft / 1,494 m 49.88000˚ 11.04583˚ 66 nm 66 nm 177° / 177° -
O EDDN APT - 0 ft / 0 m 49.49874˚ 11.07758˚ 22 nm 89 nm 177° / 177° Nurnberg

Altitude Profile

Advertisement - Login to hide

EDDE

Details ICAO EDDE (ERF)
Name Erfurt
Region Germany - Civil
Timezone Europe/Berlin (UTC+1.0)
Stats Elevation 1,035 ft / 315 m (AMSL)
Location 50.979808° 10.958105°
Runways 1
Magnetic Variation 3.026° E

METAR

EDDE 182220Z 24005KT 9999 OVC029 00/M01 Q1027

Decode

TAF

TAF TAF EDDE 181700Z 1818/1918 22005KT 9999 BKN025 BECMG 1907/1910 BKN013 TEMPO 1909/1913 2000 -SN BKN004 TEMPO 1913/1918 2000 -SNRA BKN004

Decode

Departure Runways

ID Width Length Bearing (true) Bearing (mag) Surface Threshold Offset Overrun Length
10 164 ft / 50 m 8,523 ft / 2,598 m 98.24° 95.21° Asphalt 0 ft / 0 m 0 ft / 0 m
28 164 ft / 50 m 8,523 ft / 2,598 m 278.27° 275.24° Asphalt 656 ft / 200 m 0 ft / 0 m

EDDN

Details ICAO EDDN (NUE)
Name Nurnberg
Region Germany - Civil
Timezone Europe/Berlin (UTC+1.0)
Stats Elevation 1,045 ft / 319 m (AMSL)
Location 49.498744° 11.077580°
Runways 1
Magnetic Variation 3.020° E

METAR

EDDN 182220Z 12007KT 9999 BKN036 M02/M03 Q1028

Decode

TAF

TAF EDDN 181700Z 1818/1918 11005KT 9999 BKN025 BECMG 1908/1910 27005KT TEMPO 1916/1918 3500 -SN BKN012

Decode

Destination Runways

ID Width Length Bearing (true) Bearing (mag) Surface Threshold Offset Overrun Length
10 148 ft / 45 m 8,819 ft / 2,688 m 98.60° 95.58° Asphalt 0 ft / 0 m 0 ft / 0 m
28 148 ft / 45 m 8,819 ft / 2,688 m 278.63° 275.61° Asphalt 0 ft / 0 m 0 ft / 0 m

Approach Navaids

Runway Type Ident Frequency Range Bearing (true) Bearing (mag) Slope Elevation
10 Localiser INUE 111.30 MHz 18 nm / 33 km 98.64° 95.62° - 1,046 ft / 319 m (AMSL)
10 Glidescope INUE 111.30 MHz 10 nm / 19 km 98.61° 95.59° 3.00° 1,022 ft / 312 m (AMSL)
28 Localiser INUW 109.10 MHz 23 nm / 43 km 278.59° 275.57° - 1,122 ft / 342 m (AMSL)
28 Glidescope INUW 109.10 MHz 10 nm / 19 km 278.62° 275.59° 3.00° 1,046 ft / 319 m (AMSL)

Popular Alternatives